Time;durP1;ratioP1;P1;durP2;ratioP2;P2;SDS_P1;SDS_P2;PMS_P1;PMS_P2;Temp;Humidity;BMP_temperature;BMP_pressure;BME280_temperature;BME280_humidity;BME280_pressure;Samples;Min_cycle;Max_cycle;Signal;HPM_P1;HPM_P2
2022/03/30 00:00:13;;;;;;;;;;;;;;;12.98;59.92;98629.34;4483410;32;20020;-88
2022/03/30 00:02:39;;;;;;;;;;;;;;;13.22;59.94;98619.22;4483551;32;20029;-88
2022/03/30 00:05:04;;;;;;;;;;;;;;;13.05;59.93;98616.75;4484917;32;20012;-88
2022/03/30 00:07:31;;;;;;;;;;;;;;;13.02;59.92;98616.97;4470340;32;20340;-88
2022/03/30 00:10:00;;;;;;;;;;;;;;;13.08;59.93;98613.97;4470615;32;20085;-88
2022/03/30 00:12:25;;;;;;;;;;;;;;;13.33;59.95;98623.81;4483502;32;19995;-87
2022/03/30 00:14:51;;;;;;;;;;;;;;;13.27;59.94;98619.78;4483266;32;20062;-88
2022/03/30 00:17:16;;;;;;;;;;;;;;;13.34;59.94;98617.62;4484970;31;20034;-88
2022/03/30 00:19:41;;;;;;;;;;;;;;;13.33;59.95;98619.41;4490721;31;19990;-88
2022/03/30 00:22:07;;;;;;;;;;;;;;;13.40;59.96;98619.88;4499177;31;19991;-88
2022/03/30 00:24:32;;;;;;;;;;;;;;;13.44;59.95;98609.13;4500076;31;22149;-88
2022/03/30 00:26:57;;;;;;;;;;;;;;;13.48;59.94;98609.78;4499340;31;20019;-87
2022/03/30 00:29:22;;;;;;;;;;;;;;;13.70;59.96;98606.66;4498515;31;24625;-88
2022/03/30 00:31:48;;;;;;;;;;;;;;;13.67;59.96;98604.25;4486055;31;20833;-87
2022/03/30 00:34:13;;;;;;;;;;;;;;;13.63;59.95;98600.16;4498938;31;21071;-88
2022/03/30 00:36:38;;;;;;;;;;;;;;;13.76;59.96;98586.22;4485366;31;26638;-88
2022/03/30 00:39:03;;;;;;;;;;;;;;;13.83;59.97;98587.50;4485322;31;32174;-88
2022/03/30 00:41:28;;;;;;;;;;;;;;;13.82;59.97;98590.22;4485345;31;29845;-88
2022/03/30 00:43:54;;;;;;;;;;;;;;;13.71;59.96;98592.66;4485080;31;29148;-87
2022/03/30 00:46:19;;;;;;;;;;;;;;;13.73;59.96;98585.56;4498731;31;22191;-87
2022/03/30 00:48:44;;;;;;;;;;;;;;;13.96;59.98;98571.00;4498873;31;23257;-89
2022/03/30 00:51:09;;;;;;;;;;;;;;;14.02;59.98;98581.94;4499322;31;19984;-89
2022/03/30 00:53:35;;;;;;;;;;;;;;;13.94;59.98;98584.19;4499312;31;20038;-88
2022/03/30 00:56:00;;;;;;;;;;;;;;;14.16;59.99;98578.41;4499247;31;19981;-89
2022/03/30 00:58:25;;;;;;;;;;;;;;;14.12;59.98;98576.91;4484967;31;20018;-90
2022/03/30 01:00:51;;;;;;;;;;;;;;;14.39;60.00;98569.88;4466324;32;20014;-88
2022/03/30 01:03:16;;;;;;;;;;;;;;;14.23;59.99;98565.78;4454658;32;20004;-89
2022/03/30 01:05:42;;;;;;;;;;;;;;;14.39;60.01;98567.25;4469015;32;19980;-88
2022/03/30 01:08:07;;;;;;;;;;;;;;;14.41;60.01;98570.59;4467694;32;20020;-88
2022/03/30 01:10:32;;;;;;;;;;;;;;;14.25;59.99;98563.88;4454519;32;19985;-88
2022/03/30 01:12:57;;;;;;;;;;;;;;;14.45;60.00;98563.44;4467002;32;20066;-90
2022/03/30 01:15:23;;;;;;;;;;;;;;;14.32;60.00;98566.00;4468865;32;20085;-88
2022/03/30 01:17:48;;;;;;;;;;;;;;;14.17;59.99;98564.38;4467006;32;23085;-88
2022/03/30 01:20:15;;;;;;;;;;;;;;;14.08;59.98;98564.97;4467655;32;20011;-89
2022/03/30 01:22:40;;;;;;;;;;;;;;;14.02;59.99;98566.22;4454369;32;20008;-89
2022/03/30 01:25:06;;;;;;;;;;;;;;;14.00;59.97;98564.66;4454311;32;19992;-90
2022/03/30 01:27:31;;;;;;;;;;;;;;;13.90;59.98;98567.00;4467082;32;19989;-89
2022/03/30 01:32:41;;;;;;;;;;;;;;;14.07;59.98;98553.69;4468378;32;20003;-87
2022/03/30 01:35:07;;;;;;;;;;;;;;;13.96;59.98;98555.28;4467101;32;20777;-89
2022/03/30 01:37:32;;;;;;;;;;;;;;;14.04;59.98;98542.56;4468562;32;19995;-89
2022/03/30 01:39:58;;;;;;;;;;;;;;;13.96;59.98;98543.09;4466622;32;20044;-87
2022/03/30 01:42:23;;;;;;;;;;;;;;;13.99;59.97;98535.03;4468323;32;19988;-88
2022/03/30 01:44:49;;;;;;;;;;;;;;;14.03;59.98;98540.91;4468218;32;20295;-88
2022/03/30 01:47:14;;;;;;;;;;;;;;;13.98;59.98;98535.97;4467071;32;19973;-88
2022/03/30 01:49:40;;;;;;;;;;;;;;;13.92;59.97;98538.13;4467101;32;20075;-87
2022/03/30 01:52:07;;;;;;;;;;;;;;;13.95;59.98;98537.94;4467084;32;19989;-88
2022/03/30 01:54:34;;;;;;;;;;;;;;;13.82;59.97;98543.13;4453744;32;20000;-88
2022/03/30 01:56:59;;;;;;;;;;;;;;;13.75;59.97;98540.06;4466914;32;19999;-88
2022/03/30 01:59:24;;;;;;;;;;;;;;;13.85;59.98;98531.63;4466988;32;20000;-88
2022/03/30 02:01:49;;;;;;;;;;;;;;;13.80;59.97;98538.00;4453548;32;20046;-86
2022/03/30 02:04:15;;;;;;;;;;;;;;;13.71;59.96;98528.09;4453468;32;20378;-88
2022/03/30 02:06:40;;;;;;;;;;;;;;;13.81;59.97;98523.97;4453538;32;20019;-87
2022/03/30 02:09:05;;;;;;;;;;;;;;;13.79;59.97;98530.25;4453977;32;19997;-88
2022/03/30 02:11:30;;;;;;;;;;;;;;;13.65;59.96;98519.81;4455443;32;20011;-88
2022/03/30 02:13:56;;;;;;;;;;;;;;;13.52;59.95;98522.41;4468522;32;20012;-88
2022/03/30 02:16:21;;;;;;;;;;;;;;;13.42;59.95;98527.34;4469892;32;19999;-88
2022/03/30 02:18:46;;;;;;;;;;;;;;;13.48;59.94;98523.50;4468391;32;20052;-88
2022/03/30 02:21:12;;;;;;;;;;;;;;;13.34;59.94;98532.22;4468471;32;19995;-88
2022/03/30 02:23:37;;;;;;;;;;;;;;;13.08;59.92;98533.81;4455129;32;20316;-88
2022/03/30 02:26:02;;;;;;;;;;;;;;;13.23;59.93;98529.44;4455491;32;20231;-89
2022/03/30 02:28:28;;;;;;;;;;;;;;;13.42;59.95;98535.19;4455366;32;20016;-88
2022/03/30 02:30:53;;;;;;;;;;;;;;;13.37;59.94;98541.66;4468495;32;20019;-89
2022/03/30 02:33:18;;;;;;;;;;;;;;;13.33;59.93;98529.72;4455400;32;20348;-91
2022/03/30 02:35:44;;;;;;;;;;;;;;;13.27;59.94;98533.56;4468576;32;19976;-89
2022/03/30 02:38:09;;;;;;;;;;;;;;;13.20;59.94;98537.47;4455054;32;20321;-89
2022/03/30 02:40:34;;;;;;;;;;;;;;;13.10;59.92;98537.19;4455551;32;20298;-89
2022/03/30 02:43:00;;;;;;;;;;;;;;;13.14;59.93;98538.66;4468003;32;19996;-90
2022/03/30 02:45:25;;;;;;;;;;;;;;;12.93;59.92;98536.50;4455513;32;20021;-89
2022/03/30 02:50:34;;;;;;;;;;;;;;;12.99;59.92;98534.34;4469000;32;19987;-90
2022/03/30 02:52:59;;;;;;;;;;;;;;;12.55;59.90;98534.44;4468513;32;20004;-90
2022/03/30 02:55:24;;;;;;;;;;;;;;;12.56;59.89;98534.34;4468076;32;22757;-90
2022/03/30 02:57:50;;;;;;;;;;;;;;;12.55;59.90;98542.28;4455405;32;20015;-89
2022/03/30 03:00:15;;;;;;;;;;;;;;;12.39;59.89;98542.34;4468663;32;19984;-89
2022/03/30 03:02:41;;;;;;;;;;;;;;;12.46;59.89;98543.66;4468571;32;20361;-88
2022/03/30 03:05:06;;;;;;;;;;;;;;;12.19;59.87;98545.25;4468575;32;20026;-88
2022/03/30 03:07:31;;;;;;;;;;;;;;;12.20;59.88;98536.50;4455386;32;20392;-88
2022/03/30 03:09:56;;;;;;;;;;;;;;;12.24;59.88;98538.00;4455454;32;20004;-89
2022/03/30 03:12:22;;;;;;;;;;;;;;;12.10;59.87;98535.38;4455194;32;20028;-88
2022/03/30 03:14:47;;;;;;;;;;;;;;;12.09;59.87;98539.75;4468260;32;20012;-89
2022/03/30 03:17:12;;;;;;;;;;;;;;;12.06;59.87;98549.47;4469773;32;20356;-89
2022/03/30 03:19:37;;;;;;;;;;;;;;;11.99;59.87;98543.78;4468448;32;20004;-90
2022/03/30 03:22:03;;;;;;;;;;;;;;;11.83;59.85;98541.22;4454849;32;20053;-91
2022/03/30 03:24:28;;;;;;;;;;;;;;;11.77;59.85;98546.72;4468390;32;19968;-89
2022/03/30 03:26:54;;;;;;;;;;;;;;;11.80;59.86;98548.34;4455399;32;19988;-89
2022/03/30 03:29:19;;;;;;;;;;;;;;;11.89;59.87;98537.44;4468229;32;20004;-89
2022/03/30 03:31:45;;;;;;;;;;;;;;;11.47;59.84;98536.25;4468360;32;20004;-88
2022/03/30 03:34:11;;;;;;;;;;;;;;;11.40;59.84;98539.28;4454422;32;27672;-88
2022/03/30 03:36:37;;;;;;;;;;;;;;;11.30;59.83;98538.91;4469625;32;19972;-88
2022/03/30 03:39:02;;;;;;;;;;;;;;;11.41;59.83;98533.97;4469590;32;20023;-88
2022/03/30 03:41:27;;;;;;;;;;;;;;;11.25;59.83;98535.72;4468192;32;19992;-89
2022/03/30 03:43:53;;;;;;;;;;;;;;;11.29;59.83;98532.88;4468182;32;20007;-89
2022/03/30 03:46:18;;;;;;;;;;;;;;;11.44;59.83;98532.97;4468103;32;20007;-89
2022/03/30 03:48:43;;;;;;;;;;;;;;;11.26;59.82;98533.03;4468171;32;19977;-89
2022/03/30 03:51:08;;;;;;;;;;;;;;;11.21;59.82;98535.06;4467384;32;20015;-87
2022/03/30 03:53:35;;;;;;;;;;;;;;;11.23;59.83;98529.75;4471493;32;20000;-90
2022/03/30 03:56:01;;;;;;;;;;;;;;;11.02;59.82;98529.16;4471200;32;20004;-89
2022/03/30 03:58:26;;;;;;;;;;;;;;;10.84;59.81;98530.09;4471096;32;19996;-89
2022/03/30 04:00:51;;;;;;;;;;;;;;;11.10;59.82;98536.53;4470780;32;20250;-89
2022/03/30 04:03:16;;;;;;;;;;;;;;;11.01;59.81;98532.69;4470856;32;20031;-91
2022/03/30 04:05:42;;;;;;;;;;;;;;;10.84;59.79;98536.16;4470430;32;27473;-92
2022/03/30 04:08:08;;;;;;;;;;;;;;;10.79;59.79;98526.91;4471235;32;28462;-93
2022/03/30 04:10:33;;;;;;;;;;;;;;;10.62;59.79;98530.37;4471790;32;20269;-89
2022/03/30 04:12:58;;;;;;;;;;;;;;;10.74;59.80;98528.00;4470594;32;20326;-90
2022/03/30 04:15:23;;;;;;;;;;;;;;;10.47;59.79;98531.19;4470895;32;20000;-93
2022/03/30 04:17:49;;;;;;;;;;;;;;;10.50;59.78;98526.66;4472851;32;20000;-93
2022/03/30 04:20:15;;;;;;;;;;;;;;;10.46;59.77;98527.75;4473628;32;20969;-93
2022/03/30 04:22:41;;;;;;;;;;;;;;;10.42;59.77;98521.87;4473238;32;19984;-93
2022/03/30 04:25:06;;;;;;;;;;;;;;;10.25;59.77;98534.03;4473327;32;20302;-93
2022/03/30 04:27:31;;;;;;;;;;;;;;;10.18;59.77;98524.81;4473368;32;20341;-92
2022/03/30 04:29:57;;;;;;;;;;;;;;;10.24;59.77;98530.59;4473056;32;20023;-92
2022/03/30 04:32:22;;;;;;;;;;;;;;;10.25;59.77;98532.28;4470745;32;19994;-91
2022/03/30 04:34:47;;;;;;;;;;;;;;;10.21;59.76;98535.94;4471547;32;20013;-89
2022/03/30 04:37:13;;;;;;;;;;;;;;;10.33;59.77;98532.72;4472245;32;20049;-92
2022/03/30 04:39:38;;;;;;;;;;;;;;;10.57;59.79;98533.22;4471612;32;19981;-91
2022/03/30 04:42:03;;;;;;;;;;;;;;;10.40;59.78;98536.69;4471169;32;20004;-90
2022/03/30 04:44:28;;;;;;;;;;;;;;;10.23;59.76;98538.47;4471619;32;20042;-91
2022/03/30 04:46:54;;;;;;;;;;;;;;;10.40;59.78;98541.03;4471485;32;20287;-92
2022/03/30 04:49:19;;;;;;;;;;;;;;;10.25;59.77;98540.06;4484892;32;19996;-91
2022/03/30 04:51:44;;;;;;;;;;;;;;;10.18;59.77;98545.63;4471635;32;19980;-91
2022/03/30 04:54:10;;;;;;;;;;;;;;;10.31;59.76;98544.97;4471201;32;19996;-91
2022/03/30 04:56:35;;;;;;;;;;;;;;;10.14;59.76;98544.91;4471226;32;19999;-90
2022/03/30 04:59:00;;;;;;;;;;;;;;;10.32;59.78;98540.59;4471306;32;20332;-91
2022/03/30 05:01:26;;;;;;;;;;;;;;;10.27;59.77;98542.59;4484125;32;20305;-90
2022/03/30 05:03:52;;;;;;;;;;;;;;;10.39;59.78;98552.37;4470995;32;20076;-89
2022/03/30 05:06:17;;;;;;;;;;;;;;;10.29;59.77;98548.56;4470919;32;20339;-90
2022/03/30 05:08:42;;;;;;;;;;;;;;;10.49;59.78;98550.16;4484203;32;19989;-89
2022/03/30 05:11:08;;;;;;;;;;;;;;;10.56;59.78;98554.13;4470977;32;19999;-90
2022/03/30 05:13:33;;;;;;;;;;;;;;;10.47;59.78;98558.03;4471151;32;20064;-90
2022/03/30 05:15:58;;;;;;;;;;;;;;;10.50;59.78;98567.44;4485546;32;20000;-90
2022/03/30 05:18:23;;;;;;;;;;;;;;;10.60;59.78;98568.66;4471083;32;20241;-90
2022/03/30 05:20:49;;;;;;;;;;;;;;;10.73;59.79;98575.78;4470971;32;20007;-90
2022/03/30 05:23:14;;;;;;;;;;;;;;;10.79;59.79;98569.41;4483956;32;20312;-90
2022/03/30 05:25:39;;;;;;;;;;;;;;;10.96;59.81;98571.13;4470353;32;20071;-89
2022/03/30 05:28:04;;;;;;;;;;;;;;;11.05;59.80;98574.09;4470609;32;20044;-89
2022/03/30 05:30:30;;;;;;;;;;;;;;;11.25;59.82;98569.59;4470616;32;20257;-89
2022/03/30 05:32:55;;;;;;;;;;;;;;;11.29;59.83;98564.12;4484822;32;20328;-89
2022/03/30 05:35:20;;;;;;;;;;;;;;;11.45;59.83;98560.72;4483357;32;19988;-88
2022/03/30 05:37:46;;;;;;;;;;;;;;;11.42;59.82;98566.94;4483302;32;19976;-89
2022/03/30 05:40:11;;;;;;;;;;;;;;;11.51;59.83;98569.03;4483693;32;19996;-90
2022/03/30 05:42:37;;;;;;;;;;;;;;;11.61;59.84;98575.44;4483386;32;19981;-89
2022/03/30 05:45:04;;;;;;;;;;;;;;;11.46;59.84;98565.84;4482778;32;19993;-90
2022/03/30 05:47:29;;;;;;;;;;;;;;;11.65;59.84;98563.06;4483127;32;19996;-89
2022/03/30 05:49:54;;;;;;;;;;;;;;;11.61;59.84;98569.38;4483026;32;19999;-90
2022/03/30 05:52:20;;;;;;;;;;;;;;;11.71;59.84;98554.06;4483550;32;20007;-89
2022/03/30 05:54:45;;;;;;;;;;;;;;;11.91;59.86;98552.06;4484635;32;20321;-89
2022/03/30 05:57:10;;;;;;;;;;;;;;;12.02;59.86;98561.03;4483032;32;19999;-89
2022/03/30 05:59:40;;;;;;;;;;;;;;;12.24;59.88;98558.88;4470401;32;20007;-89
2022/03/30 06:02:06;;;;;;;;;;;;;;;12.27;59.88;98558.69;4470297;32;19976;-88
2022/03/30 06:04:31;;;;;;;;;;;;;;;12.51;59.89;98557.25;4483510;32;20355;-89
2022/03/30 06:06:57;;;;;;;;;;;;;;;12.49;59.89;98564.34;4470425;32;20036;-89
2022/03/30 06:09:22;;;;;;;;;;;;;;;12.53;59.89;98567.59;4483485;32;19992;-90
2022/03/30 06:12:06;;;;;;;;;;;;;;;12.70;59.90;98561.41;4483512;32;20288;-91
2022/03/30 06:14:32;;;;;;;;;;;;;;;12.69;59.90;98549.28;4483799;32;19992;-89
2022/03/30 06:16:57;;;;;;;;;;;;;;;13.00;59.91;98563.94;4483631;32;20024;-88
2022/03/30 06:19:22;;;;;;;;;;;;;;;13.13;59.93;98565.72;4484800;31;20654;-88
2022/03/30 06:21:48;;;;;;;;;;;;;;;13.25;59.93;98558.94;4483431;32;19984;-88
2022/03/30 06:24:13;;;;;;;;;;;;;;;13.47;59.94;98550.59;4475236;31;20004;-88
2022/03/30 06:26:38;;;;;;;;;;;;;;;13.80;59.97;98553.69;4467975;32;19988;-86
2022/03/30 06:29:04;;;;;;;;;;;;;;;14.03;59.98;98551.38;4466592;32;19987;-88
2022/03/30 06:31:29;;;;;;;;;;;;;;;14.10;59.98;98552.63;4466257;32;19992;-88
2022/03/30 06:33:54;;;;;;;;;;;;;;;14.03;59.97;98551.38;4466256;32;20054;-87
2022/03/30 06:36:19;;;;;;;;;;;;;;;14.33;60.00;98546.72;4467342;32;19981;-86
2022/03/30 06:38:45;;;;;;;;;;;;;;;14.42;60.00;98553.97;4467904;32;20003;-87
2022/03/30 06:41:12;;;;;;;;;;;;;;;14.63;60.01;98553.50;4467718;32;20341;-87
2022/03/30 06:43:42;;;;;;;;;;;;;;;14.88;60.02;98560.53;4466287;32;20477;-88
2022/03/30 06:46:08;;;;;;;;;;;;;;;14.96;60.02;98563.47;4467505;32;19985;-88
2022/03/30 06:48:34;;;;;;;;;;;;;;;15.13;60.04;98549.19;4466120;32;19972;-88
2022/03/30 06:50:59;;;;;;;;;;;;;;;15.18;60.03;98550.56;4453304;32;19980;-88
2022/03/30 06:53:24;;;;;;;;;;;;;;;15.16;60.04;98551.63;4465799;32;24319;-88
2022/03/30 06:55:50;;;;;;;;;;;;;;;15.22;60.04;98546.78;4468029;32;19988;-88
2022/03/30 06:58:16;;;;;;;;;;;;;;;15.46;60.05;98551.25;4455651;32;20021;-88
2022/03/30 07:00:41;;;;;;;;;;;;;;;15.33;60.05;98553.87;4468557;32;20005;-88
2022/03/30 07:03:06;;;;;;;;;;;;;;;15.46;60.05;98548.62;4468831;32;20034;-88
2022/03/30 07:05:33;;;;;;;;;;;;;;;15.61;60.06;98552.78;4456157;32;19997;-88
2022/03/30 07:10:42;;;;;;;;;;;;;;;15.74;60.06;98547.50;4469606;32;20013;-88
2022/03/30 07:13:07;;;;;;;;;;;;;;;15.79;60.07;98548.00;4470377;32;20020;-88
2022/03/30 07:15:32;;;;;;;;;;;;;;;15.89;60.08;98554.28;4470769;32;19992;-85
2022/03/30 07:18:01;;;;;;;;;;;;;;;15.81;60.07;98549.56;4469187;32;20313;-86
2022/03/30 07:20:26;;;;;;;;;;;;;;;16.08;60.09;98548.50;4470669;32;20041;-87
2022/03/30 07:22:51;;;;;;;;;;;;;;;16.32;60.10;98543.22;4469097;32;20001;-87
2022/03/30 07:25:17;;;;;;;;;;;;;;;16.58;60.11;98542.12;4456132;32;20010;-86
2022/03/30 07:27:44;;;;;;;;;;;;;;;16.62;60.12;98550.63;4470502;32;19989;-86
2022/03/30 07:30:09;;;;;;;;;;;;;;;16.58;60.11;98536.88;4469220;32;20056;-87
2022/03/30 07:32:36;;;;;;;;;;;;;;;16.74;60.12;98531.31;4470254;32;20326;-85
2022/03/30 07:35:01;;;;;;;;;;;;;;;16.95;60.13;98542.78;4468890;32;20011;-85
2022/03/30 07:37:26;;;;;;;;;;;;;;;17.07;60.14;98541.88;4455950;32;20028;-87
2022/03/30 07:39:52;;;;;;;;;;;;;;;17.28;60.14;98528.84;4455824;32;20024;-87
2022/03/30 07:42:17;;;;;;;;;;;;;;;17.46;60.16;98511.56;4468914;32;20024;-86
2022/03/30 07:44:42;;;;;;;;;;;;;;;17.56;60.17;98508.22;4469642;32;23905;-87
2022/03/30 07:47:07;;;;;;;;;;;;;;;17.62;60.17;98512.97;4455837;32;20302;-87
2022/03/30 07:49:33;;;;;;;;;;;;;;;17.65;60.17;98520.63;4468743;32;19981;-87
2022/03/30 07:52:03;;;;;;;;;;;;;;;17.99;60.19;98519.59;4470285;32;19977;-87
2022/03/30 07:54:28;;;;;;;;;;;;;;;18.09;60.19;98525.78;4469193;32;20011;-87
2022/03/30 07:56:53;;;;;;;;;;;;;;;18.33;60.21;98522.91;4470339;32;20001;-87
2022/03/30 07:59:18;;;;;;;;;;;;;;;18.54;60.22;98528.19;4469106;32;20016;-87
2022/03/30 08:01:44;;;;;;;;;;;;;;;18.81;60.23;98522.41;4469090;32;20018;-87
2022/03/30 08:04:09;;;;;;;;;;;;;;;18.99;60.25;98531.41;4470011;32;19988;-87
2022/03/30 08:06:34;;;;;;;;;;;;;;;19.15;60.26;98519.50;4468964;32;19999;-87
2022/03/30 08:08:59;;;;;;;;;;;;;;;19.36;60.26;98522.91;4468959;32;20309;-86
2022/03/30 08:11:25;;;;;;;;;;;;;;;19.44;60.26;98522.25;4468945;32;20016;-87
2022/03/30 08:13:50;;;;;;;;;;;;;;;19.63;60.27;98528.44;4468832;32;19996;-87
2022/03/30 08:16:15;;;;;;;;;;;;;;;19.86;60.29;98521.09;4470160;32;19972;-87
2022/03/30 08:18:40;;;;;;;;;;;;;;;19.80;60.28;98529.56;4468948;32;19988;-87
2022/03/30 08:23:49;;;;;;;;;;;;;;;20.24;60.31;98530.84;4469103;32;20003;-87
2022/03/30 08:26:15;;;;;;;;;;;;;;;20.29;60.31;98530.44;4469440;32;26220;-88
2022/03/30 08:28:40;;;;;;;;;;;;;;;20.34;60.32;98530.84;4468103;32;28716;-87
2022/03/30 08:31:05;;;;;;;;;;;;;;;20.42;60.32;98524.91;4470084;32;19973;-87
2022/03/30 08:33:30;;;;;;;;;;;;;;;20.72;60.33;98526.50;4455461;32;20011;-87
2022/03/30 08:35:55;;;;;;;;;;;;;;;20.89;60.34;98533.72;4469337;32;29666;-87
2022/03/30 08:38:21;;;;;;;;;;;;;;;21.17;60.36;98531.09;4470008;32;20294;-87
2022/03/30 08:40:47;;;;;;;;;;;;;;;21.28;60.36;98528.28;4468751;32;20015;-87
2022/03/30 08:43:12;;;;;;;;;;;;;;;21.30;60.36;98526.38;4468744;32;19993;-87
2022/03/30 08:45:37;;;;;;;;;;;;;;;21.22;60.35;98524.38;4468483;32;20061;-87
2022/03/30 08:48:04;;;;;;;;;;;;;;;21.44;60.37;98533.78;4455755;32;20033;-87
2022/03/30 08:50:30;;;;;;;;;;;;;;;21.59;60.38;98529.69;4468808;32;20093;-88
2022/03/30 08:52:56;;;;;;;;;;;;;;;21.83;60.39;98526.47;4468774;32;20078;-87
2022/03/30 08:55:21;;;;;;;;;;;;;;;21.87;60.40;98530.47;4468642;32;19980;-87
2022/03/30 08:57:46;;;;;;;;;;;;;;;22.05;60.40;98530.53;4469935;32;20849;-88
2022/03/30 09:00:16;;;;;;;;;;;;;;;22.10;60.41;98527.41;4468737;32;20029;-87
2022/03/30 09:02:42;;;;;;;;;;;;;;;22.15;60.41;98531.25;4468641;32;20043;-88
2022/03/30 09:05:12;;;;;;;;;;;;;;;22.24;60.41;98526.84;4468535;32;19976;-88
2022/03/30 09:07:38;;;;;;;;;;;;;;;22.29;60.42;98517.50;4468703;32;20008;-88
2022/03/30 09:10:03;;;;;;;;;;;;;;;22.37;60.42;98516.72;4469719;32;19980;-87
2022/03/30 09:12:28;;;;;;;;;;;;;;;22.30;60.41;98526.28;4469864;32;20239;-88
2022/03/30 09:14:59;;;;;;;;;;;;;;;22.44;60.42;98516.91;4468103;32;20040;-88
2022/03/30 09:17:24;;;;;;;;;;;;;;;22.51;60.43;98516.16;4468550;32;20044;-88
2022/03/30 09:19:51;;;;;;;;;;;;;;;22.37;60.42;98519.34;4468576;32;20272;-87
2022/03/30 09:22:16;;;;;;;;;;;;;;;22.43;60.43;98516.09;4468383;32;20363;-87
2022/03/30 09:24:41;;;;;;;;;;;;;;;22.36;60.43;98517.69;4468241;32;19993;-88
2022/03/30 09:27:07;;;;;;;;;;;;;;;22.53;60.43;98521.31;4469751;32;20235;-88
2022/03/30 09:29:33;;;;;;;;;;;;;;;22.52;60.43;98517.84;4468370;32;20013;-88
2022/03/30 09:32:01;;;;;;;;;;;;;;;22.49;60.43;98517.31;4468102;32;20321;-90
2022/03/30 09:34:27;;;;;;;;;;;;;;;22.56;60.44;98515.69;4468170;32;20619;-88
2022/03/30 09:36:52;;;;;;;;;;;;;;;22.56;60.43;98518.34;4468176;32;20008;-88
2022/03/30 09:39:33;;;;;;;;;;;;;;;22.51;60.43;98518.00;4468108;32;20024;-89
2022/03/30 09:41:59;;;;;;;;;;;;;;;22.35;60.42;98516.88;4455050;32;19997;-88
2022/03/30 09:44:25;;;;;;;;;;;;;;;22.26;60.42;98517.78;4468053;32;19969;-88
2022/03/30 09:46:54;;;;;;;;;;;;;;;22.29;60.42;98512.19;4468054;32;19988;-88
2022/03/30 09:49:39;;;;;;;;;;;;;;;22.36;60.42;98509.75;4468156;32;20003;-88
2022/03/30 09:52:10;;;;;;;;;;;;;;;22.26;60.42;98507.19;4469724;32;20333;-88
2022/03/30 09:54:57;;;;;;;;;;;;;;;22.50;60.43;98500.41;4467878;32;20322;-88
2022/03/30 09:57:22;;;;;;;;;;;;;;;22.51;60.43;98504.72;4467907;32;19972;-88
2022/03/30 10:00:05;;;;;;;;;;;;;;;22.36;60.42;98494.66;4469359;32;20032;-89
2022/03/30 10:02:32;;;;;;;;;;;;;;;22.42;60.43;98492.37;4469125;32;20007;-88
2022/03/30 10:04:57;;;;;;;;;;;;;;;22.32;60.43;98493.31;4467915;32;20357;-88
2022/03/30 10:07:23;;;;;;;;;;;;;;;22.23;60.42;98488.09;4467867;32;19987;-89
2022/03/30 10:09:48;;;;;;;;;;;;;;;22.32;60.43;98489.84;4454944;32;20039;-87
2022/03/30 10:12:17;;;;;;;;;;;;;;;22.19;60.42;98486.72;4469025;32;19991;-88
2022/03/30 10:14:42;;;;;;;;;;;;;;;22.19;60.41;98486.72;4467614;32;20033;-89
2022/03/30 10:17:07;;;;;;;;;;;;;;;22.32;60.42;98489.84;4467672;32;19977;-89
2022/03/30 10:19:32;;;;;;;;;;;;;;;22.37;60.42;98487.53;4467056;32;24709;-87
2022/03/30 10:22:02;;;;;;;;;;;;;;;22.42;60.43;98481.78;4468202;32;26101;-88
2022/03/30 10:24:27;;;;;;;;;;;;;;;22.61;60.44;98485.06;4467556;32;19987;-88
2022/03/30 10:26:58;;;;;;;;;;;;;;;22.68;60.44;98478.13;4467695;32;19985;-88
2022/03/30 10:29:24;;;;;;;;;;;;;;;22.64;60.44;98476.78;4454450;32;20056;-87
2022/03/30 10:32:07;;;;;;;;;;;;;;;22.58;60.44;98472.12;4455651;32;20314;-88
2022/03/30 10:34:33;;;;;;;;;;;;;;;22.59;60.44;98471.13;4470971;32;20377;-90
2022/03/30 10:37:07;;;;;;;;;;;;;;;22.58;60.44;98465.97;4456586;32;20005;-89
2022/03/30 10:39:32;;;;;;;;;;;;;;;22.64;60.44;98466.19;4469722;32;19999;-89
2022/03/30 10:42:05;;;;;;;;;;;;;;;22.55;60.44;98463.66;4456421;32;20032;-90
2022/03/30 10:44:34;;;;;;;;;;;;;;;22.60;60.44;98467.50;4470767;32;20253;-87
2022/03/30 10:47:08;;;;;;;;;;;;;;;22.61;60.44;98461.19;4469365;32;19999;-87
2022/03/30 10:49:40;;;;;;;;;;;;;;;22.63;60.44;98464.50;4470956;32;20031;-90
2022/03/30 10:52:25;;;;;;;;;;;;;;;22.51;60.43;98463.13;4456383;32;20015;-88
2022/03/30 10:54:55;;;;;;;;;;;;;;;22.50;60.43;98452.69;4471003;32;19988;-87
2022/03/30 10:57:39;;;;;;;;;;;;;;;22.52;60.44;98446.22;4457281;32;19973;-90
2022/03/30 11:00:09;;;;;;;;;;;;;;;22.67;60.44;98449.13;4469693;32;19982;-89
2022/03/30 11:02:40;;;;;;;;;;;;;;;22.71;60.45;98439.84;4469375;32;19993;-89
2022/03/30 11:05:09;;;;;;;;;;;;;;;22.70;60.45;98438.19;4469483;32;19987;-87
2022/03/30 11:07:35;;;;;;;;;;;;;;;22.68;60.44;98434.88;4469616;32;19989;-89
2022/03/30 11:10:13;;;;;;;;;;;;;;;22.76;60.45;98436.75;4469449;32;20018;-88
2022/03/30 11:12:57;;;;;;;;;;;;;;;22.73;60.45;98435.25;4470826;32;20027;-89
2022/03/30 11:15:22;;;;;;;;;;;;;;;22.64;60.44;98437.00;4470639;32;20004;-88
2022/03/30 11:17:47;;;;;;;;;;;;;;;22.66;60.44;98424.41;4470645;32;20306;-88
2022/03/30 11:20:14;;;;;;;;;;;;;;;22.67;60.44;98422.59;4469290;32;19997;-87
2022/03/30 11:22:44;;;;;;;;;;;;;;;22.54;60.43;98431.00;4469168;32;20002;-88
2022/03/30 11:25:19;;;;;;;;;;;;;;;22.59;60.44;98419.91;4469165;32;19969;-88
2022/03/30 11:27:56;;;;;;;;;;;;;;;22.63;60.44;98419.44;4470510;32;19973;-87
2022/03/30 11:30:22;;;;;;;;;;;;;;;22.66;60.44;98416.47;4469214;32;20323;-87
2022/03/30 11:32:50;;;;;;;;;;;;;;;22.83;60.45;98413.94;4469112;32;19989;-88
2022/03/30 11:35:17;;;;;;;;;;;;;;;22.99;60.46;98410.50;4470416;32;20026;-89
2022/03/30 11:37:43;;;;;;;;;;;;;;;22.87;60.46;98402.00;4469264;32;19969;-89
2022/03/30 11:40:10;;;;;;;;;;;;;;;22.88;60.45;98409.78;4470551;32;19981;-88
2022/03/30 11:42:40;;;;;;;;;;;;;;;22.90;60.45;98397.19;4470120;32;19992;-89
2022/03/30 11:45:20;;;;;;;;;;;;;;;22.86;60.46;98395.84;4469176;32;19992;-88
2022/03/30 11:47:49;;;;;;;;;;;;;;;22.86;60.44;98403.00;4469028;32;20355;-88
2022/03/30 11:50:20;;;;;;;;;;;;;;;22.88;60.45;98387.72;4470409;32;19980;-89
2022/03/30 11:52:56;;;;;;;;;;;;;;;22.79;60.46;98392.16;4469191;32;19992;-88
2022/03/30 11:55:21;;;;;;;;;;;;;;;22.68;60.44;98395.91;4470248;32;19988;-89
2022/03/30 11:57:46;;;;;;;;;;;;;;;22.67;60.44;98383.63;4469153;32;19985;-88
2022/03/30 12:00:12;;;;;;;;;;;;;;;22.71;60.45;98380.66;4469161;32;20306;-88
2022/03/30 12:02:38;;;;;;;;;;;;;;;22.77;60.45;98377.41;4469094;32;19988;-89
2022/03/30 12:05:04;;;;;;;;;;;;;;;22.75;60.44;98382.84;4455943;32;20011;-88
2022/03/30 12:07:32;;;;;;;;;;;;;;;22.76;60.44;98376.56;4470187;32;20008;-90
2022/03/30 12:09:57;;;;;;;;;;;;;;;22.85;60.45;98365.00;4469075;32;20003;-88
2022/03/30 12:12:35;;;;;;;;;;;;;;;22.85;60.45;98365.00;4468404;32;21955;-88
2022/03/30 12:15:01;;;;;;;;;;;;;;;22.83;60.45;98364.34;4470303;32;19985;-88
2022/03/30 12:17:26;;;;;;;;;;;;;;;22.55;60.44;98365.53;4455885;32;19992;-90
2022/03/30 12:19:52;;;;;;;;;;;;;;;22.60;60.44;98363.22;4468829;32;20253;-89
2022/03/30 12:22:17;;;;;;;;;;;;;;;22.52;60.43;98364.03;4469041;32;20330;-86
2022/03/30 12:24:42;;;;;;;;;;;;;;;22.34;60.43;98356.13;4469781;32;25093;-89
2022/03/30 12:27:07;;;;;;;;;;;;;;;22.33;60.43;98361.59;4469172;32;20027;-88
2022/03/30 12:29:33;;;;;;;;;;;;;;;22.31;60.42;98358.28;4470456;32;19997;-90
2022/03/30 12:31:59;;;;;;;;;;;;;;;22.28;60.43;98348.00;4468926;32;20368;-87
2022/03/30 12:34:25;;;;;;;;;;;;;;;22.20;60.42;98348.75;4468993;32;19976;-89
2022/03/30 12:37:01;;;;;;;;;;;;;;;22.19;60.42;98348.91;4468974;32;20052;-90
2022/03/30 12:39:42;;;;;;;;;;;;;;;22.06;60.41;98354.63;4469218;32;19976;-89
2022/03/30 12:42:09;;;;;;;;;;;;;;;21.82;60.40;98349.97;4469105;32;19989;-88
2022/03/30 12:44:35;;;;;;;;;;;;;;;21.67;60.38;98347.03;4468886;32;20032;-89
2022/03/30 12:47:01;;;;;;;;;;;;;;;21.51;60.38;98338.94;4455997;32;19990;-87
2022/03/30 12:49:34;;;;;;;;;;;;;;;21.55;60.39;98328.91;4470377;32;19996;-90
2022/03/30 12:52:06;;;;;;;;;;;;;;;21.69;60.40;98331.81;4469127;32;20014;-90
2022/03/30 12:54:31;;;;;;;;;;;;;;;21.49;60.38;98332.13;4467726;32;20328;-88